Time;durP1;ratioP1;P1;durP2;ratioP2;P2;SDS_P1;SDS_P2;PMS_P1;PMS_P2;Temp;Humidity;BMP_temperature;BMP_pressure;BME280_temperature;BME280_humidity;BME280_pressure;Samples;Min_cycle;Max_cycle;Signal;HPM_P1;HPM_P2
2022/11/16 00:00:04;;;;;;;2.40;2.20;;;9.70;99.90;;;;;;4992544;28;20236;-72
2022/11/16 00:02:31;;;;;;;3.20;2.80;;;9.60;99.90;;;;;;4990955;28;20263;-72
2022/11/16 00:04:58;;;;;;;3.05;2.10;;;9.60;99.90;;;;;;4991438;28;20203;-72
2022/11/16 00:07:25;;;;;;;3.38;2.50;;;9.60;99.90;;;;;;4991324;28;20768;-72
2022/11/16 00:09:51;;;;;;;3.35;3.05;;;9.60;99.90;;;;;;4991424;28;20227;-71
2022/11/16 00:12:18;;;;;;;2.80;2.30;;;9.60;99.90;;;;;;4990864;28;20208;-73
2022/11/16 00:14:45;;;;;;;5.82;3.10;;;9.60;99.90;;;;;;4991180;28;20812;-71
2022/11/16 00:17:13;;;;;;;4.32;2.67;;;9.50;99.90;;;;;;4989690;28;20207;-72
2022/11/16 00:19:40;;;;;;;2.67;2.47;;;9.50;99.90;;;;;;4992188;28;20293;-72
2022/11/16 00:22:06;;;;;;;3.47;2.83;;;9.50;99.90;;;;;;4993084;28;20230;-72
2022/11/16 00:24:34;;;;;;;4.47;3.53;;;9.50;99.90;;;;;;4990325;28;20674;-72
2022/11/16 00:27:00;;;;;;;3.40;2.70;;;9.50;99.90;;;;;;5000255;28;20239;-72
2022/11/16 00:29:27;;;;;;;3.58;2.90;;;9.40;99.90;;;;;;4993505;28;20199;-72
2022/11/16 00:31:55;;;;;;;3.53;3.13;;;9.50;99.90;;;;;;4995950;28;20223;-72
2022/11/16 00:34:23;;;;;;;4.00;3.22;;;9.40;99.90;;;;;;4993308;28;20200;-72
2022/11/16 00:36:50;;;;;;;6.07;2.85;;;9.40;99.90;;;;;;5001289;28;20466;-72
2022/11/16 00:39:18;;;;;;;3.40;2.95;;;9.50;99.90;;;;;;5003480;28;20290;-72
2022/11/16 00:41:45;;;;;;;3.67;2.40;;;9.50;99.90;;;;;;5009329;28;20249;-72
2022/11/16 00:44:12;;;;;;;3.90;3.50;;;9.50;99.90;;;;;;5009591;28;20222;-72
2022/11/16 00:46:39;;;;;;;3.10;2.80;;;9.40;99.90;;;;;;5009921;28;20218;-72
2022/11/16 00:49:06;;;;;;;3.42;3.13;;;9.50;99.90;;;;;;5082961;22;20226;-69
2022/11/16 00:51:36;;;;;;;3.67;2.90;;;9.40;99.90;;;;;;5002678;28;20344;-69
2022/11/16 00:54:04;;;;;;;3.42;2.67;;;9.40;99.90;;;;;;5012881;28;20570;-69
2022/11/16 00:56:31;;;;;;;3.40;3.00;;;9.40;99.90;;;;;;5012351;28;20207;-69
2022/11/16 00:58:58;;;;;;;2.72;2.45;;;9.40;99.90;;;;;;5012830;28;20212;-68
2022/11/16 01:01:24;;;;;;;3.15;2.67;;;9.40;99.90;;;;;;5011834;28;20231;-69
2022/11/16 01:03:51;;;;;;;4.22;3.05;;;9.40;99.90;;;;;;5013713;28;20199;-69
2022/11/16 01:06:19;;;;;;;2.60;2.40;;;9.40;99.90;;;;;;5012211;28;20203;-69
2022/11/16 01:08:48;;;;;;;3.08;2.70;;;9.40;99.90;;;;;;5012626;28;20202;-69
2022/11/16 01:14:03;;;;;;;4.38;2.60;;;9.30;99.90;;;;;;5012765;28;20206;-69
2022/11/16 01:16:30;;;;;;;4.88;2.53;;;9.30;99.90;;;;;;5012266;28;20214;-69
2022/11/16 01:18:56;;;;;;;6.32;2.45;;;9.20;99.90;;;;;;5012685;28;20202;-69
2022/11/16 01:21:24;;;;;;;3.22;2.83;;;9.20;99.90;;;;;;5012036;28;20229;-68
2022/11/16 01:23:54;;;;;;;3.05;2.85;;;9.20;99.90;;;;;;5012541;28;20681;-69
2022/11/16 01:26:21;;;;;;;4.07;2.70;;;9.20;99.90;;;;;;5012444;28;20684;-70
2022/11/16 01:28:48;;;;;;;3.40;3.08;;;9.20;99.90;;;;;;5012093;28;20583;-68
2022/11/16 01:31:14;;;;;;;3.40;2.97;;;9.20;99.90;;;;;;5012197;28;20229;-69
2022/11/16 01:33:41;;;;;;;3.00;2.70;;;9.20;99.90;;;;;;5013096;28;20199;-69
2022/11/16 01:36:13;;;;;;;2.85;2.60;;;9.10;99.90;;;;;;5013123;28;20683;-67
2022/11/16 01:38:41;;;;;;;2.75;2.55;;;9.20;99.90;;;;;;5012639;28;20735;-69
2022/11/16 01:41:12;;;;;;;4.05;2.83;;;9.10;99.90;;;;;;5011503;28;20273;-69
2022/11/16 01:43:56;;;;;;;3.15;2.85;;;9.10;99.90;;;;;;5012097;28;20207;-68
2022/11/16 01:46:23;;;;;;;4.20;3.30;;;9.10;99.90;;;;;;5011852;28;20236;-67
2022/11/16 01:48:54;;;;;;;3.10;2.70;;;9.10;99.90;;;;;;5011911;28;20217;-69
2022/11/16 01:51:22;;;;;;;4.35;3.10;;;9.10;99.90;;;;;;5011018;28;20600;-69
2022/11/16 01:53:49;;;;;;;4.28;3.17;;;9.10;99.90;;;;;;5011867;28;20209;-69
2022/11/16 01:56:18;;;;;;;3.10;2.80;;;9.10;99.90;;;;;;5011656;28;20217;-68
2022/11/16 01:58:45;;;;;;;4.18;3.17;;;9.10;99.90;;;;;;5011644;28;20694;-69
2022/11/16 02:01:12;;;;;;;3.05;2.63;;;9.00;99.90;;;;;;5010645;28;20218;-68
2022/11/16 02:03:39;;;;;;;3.58;3.25;;;9.10;99.90;;;;;;5011471;28;20206;-69
2022/11/16 02:06:22;;;;;;;3.55;2.70;;;9.10;99.90;;;;;;5011161;28;20584;-69
2022/11/16 02:12:11;;;;;;;4.53;3.20;;;9.00;99.90;;;;;;5010752;28;20214;-68
2022/11/16 02:14:54;;;;;;;3.22;2.85;;;9.00;99.90;;;;;;5011348;28;20207;-69
2022/11/16 02:17:31;;;;;;;3.63;2.67;;;9.00;99.90;;;;;;5010857;28;20213;-68
2022/11/16 02:20:32;;;;;;;3.67;3.03;;;9.00;99.90;;;;;;5011103;28;20230;-68
2022/11/16 02:23:16;;;;;;;3.38;2.83;;;9.10;99.90;;;;;;5010913;28;20219;-68
2022/11/16 02:25:53;;;;;;;2.70;2.50;;;9.10;99.90;;;;;;5011436;28;20213;-68
2022/11/16 02:28:34;;;;;;;2.53;2.33;;;9.10;99.90;;;;;;5010735;28;20681;-68
2022/11/16 02:31:05;;;;;;;2.72;2.40;;;9.10;99.90;;;;;;5010419;28;20598;-69
2022/11/16 02:33:36;;;;;;;4.13;2.42;;;9.10;99.90;;;;;;5010708;28;20203;-69
2022/11/16 02:36:05;;;;;;;2.90;2.50;;;9.20;99.90;;;;;;5011155;28;20203;-68
2022/11/16 02:38:36;;;;;;;2.67;2.47;;;9.20;99.90;;;;;;5010845;28;20209;-70
2022/11/16 02:41:09;;;;;;;2.45;2.25;;;9.20;99.90;;;;;;5012065;28;20223;-69
2022/11/16 02:43:40;;;;;;;3.47;2.42;;;9.30;99.90;;;;;;5015303;28;20230;-69
2022/11/16 02:46:14;;;;;;;2.05;1.85;;;9.30;99.90;;;;;;5015418;28;20206;-69
2022/11/16 02:48:46;;;;;;;2.28;2.05;;;9.30;99.90;;;;;;5015129;28;20206;-69
2022/11/16 02:51:13;;;;;;;2.95;2.28;;;9.30;99.90;;;;;;5014088;28;20222;-69
2022/11/16 02:54:01;;;;;;;2.20;1.83;;;9.30;99.90;;;;;;5014986;28;20229;-69
2022/11/16 02:56:28;;;;;;;2.72;2.40;;;9.30;99.90;;;;;;5014111;28;20209;-69
2022/11/16 02:58:56;;;;;;;1.95;1.70;;;9.30;99.90;;;;;;5015032;28;20209;-68
2022/11/16 03:01:30;;;;;;;2.20;2.00;;;9.40;99.90;;;;;;5014054;28;20231;-69
2022/11/16 03:04:02;;;;;;;4.88;1.83;;;9.40;99.90;;;;;;5015236;28;20592;-69
2022/11/16 03:06:32;;;;;;;2.35;2.15;;;9.40;99.90;;;;;;5014623;28;20566;-69
2022/11/16 03:09:04;;;;;;;2.15;1.98;;;9.40;99.90;;;;;;5014680;28;20210;-68
2022/11/16 03:14:20;;;;;;;2.05;1.95;;;9.50;99.90;;;;;;5014687;28;20277;-69
2022/11/16 03:16:50;;;;;;;2.50;2.00;;;9.50;99.90;;;;;;5014578;28;20205;-70
2022/11/16 03:19:22;;;;;;;1.65;1.45;;;9.50;99.90;;;;;;5014577;28;20210;-69
2022/11/16 03:21:55;;;;;;;8.07;2.10;;;9.50;99.90;;;;;;5013939;28;20230;-69
2022/11/16 03:24:22;;;;;;;1.60;1.30;;;9.50;99.90;;;;;;5014812;28;20210;-69
2022/11/16 03:27:00;;;;;;;2.15;1.95;;;9.50;99.90;;;;;;5014580;28;20203;-69
2022/11/16 03:29:31;;;;;;;3.15;1.90;;;9.60;99.90;;;;;;5014212;28;20203;-69
2022/11/16 03:32:05;;;;;;;2.28;1.92;;;9.60;99.90;;;;;;5013970;28;20199;-69
2022/11/16 03:34:34;;;;;;;2.75;2.33;;;9.60;99.90;;;;;;5013981;28;20211;-69
2022/11/16 03:37:03;;;;;;;2.03;1.85;;;9.60;99.90;;;;;;5014537;28;20206;-69
2022/11/16 03:39:33;;;;;;;2.78;2.40;;;9.60;99.90;;;;;;5013955;28;20212;-69
2022/11/16 03:42:02;;;;;;;2.53;2.33;;;9.60;99.90;;;;;;5013947;28;20615;-69
2022/11/16 03:44:29;;;;;;;2.40;2.00;;;9.50;99.90;;;;;;5013983;28;20212;-69
2022/11/16 03:46:56;;;;;;;2.40;2.20;;;9.50;99.90;;;;;;5014419;28;20206;-69
2022/11/16 03:49:24;;;;;;;2.92;2.38;;;9.40;99.90;;;;;;5013633;28;20210;-68
2022/11/16 03:51:51;;;;;;;2.35;2.15;;;9.40;99.90;;;;;;5013517;28;20609;-68
2022/11/16 03:54:18;;;;;;;2.95;2.30;;;9.30;99.90;;;;;;5014025;28;20203;-69
2022/11/16 03:56:45;;;;;;;3.53;2.03;;;9.30;99.90;;;;;;5013938;28;20206;-69
2022/11/16 03:59:12;;;;;;;1.90;1.80;;;9.30;99.90;;;;;;5013853;28;20589;-68
2022/11/16 04:01:39;;;;;;;2.30;2.10;;;9.30;99.90;;;;;;5012953;28;20281;-69
2022/11/16 04:04:05;;;;;;;2.28;2.08;;;9.30;99.90;;;;;;5013700;28;20203;-69
2022/11/16 04:25:50;;;;;;;1.85;1.60;;;9.40;99.90;;;;;;4963416;28;20290;-69
2022/11/16 04:28:19;;;;;;;2.20;1.60;;;9.40;99.90;;;;;;4993586;28;20207;-70
2022/11/16 04:39:03;;;;;;;3.33;2.10;;;9.40;99.90;;;;;;5003821;28;20221;-70
2022/11/16 04:44:14;;;;;;;2.08;1.80;;;9.60;99.90;;;;;;5002259;28;20310;-69
2022/11/16 04:49:26;;;;;;;2.05;1.90;;;9.60;99.90;;;;;;5000410;28;20210;-68
2022/11/16 04:51:53;;;;;;;2.10;1.90;;;9.70;99.90;;;;;;5000920;28;20241;-69
2022/11/16 04:54:21;;;;;;;2.53;1.90;;;9.70;99.90;;;;;;4997503;28;20206;-68
2022/11/16 04:56:48;;;;;;;4.35;1.90;;;9.70;99.90;;;;;;4995160;28;20223;-68
2022/11/16 04:59:14;;;;;;;2.33;2.13;;;9.70;99.90;;;;;;4992042;28;20196;-69
2022/11/16 05:04:22;;;;;;;2.20;1.98;;;9.80;99.90;;;;;;4991008;28;20265;-69
2022/11/16 05:06:49;;;;;;;2.25;2.05;;;9.80;99.90;;;;;;5002038;28;20206;-68
2022/11/16 05:09:16;;;;;;;2.25;2.05;;;9.70;99.90;;;;;;5001893;28;20663;-69
2022/11/16 05:11:44;;;;;;;3.33;3.03;;;9.70;99.90;;;;;;4999603;28;20212;-68
2022/11/16 05:14:11;;;;;;;2.55;2.15;;;9.70;99.90;;;;;;5002147;28;20285;-68
2022/11/16 05:16:38;;;;;;;2.35;2.15;;;9.70;99.90;;;;;;5001033;28;20670;-69
2022/11/16 05:21:49;;;;;;;2.75;2.15;;;9.70;99.90;;;;;;5001531;28;20583;-68
2022/11/16 05:24:34;;;;;;;2.70;2.50;;;9.70;99.90;;;;;;4999466;28;20457;-67
2022/11/16 05:27:05;;;;;;;2.70;2.50;;;9.70;99.90;;;;;;5000790;28;20700;-68
2022/11/16 05:29:32;;;;;;;3.33;2.05;;;9.70;99.90;;;;;;4998757;28;20196;-67
2022/11/16 05:31:59;;;;;;;2.10;1.90;;;9.70;99.90;;;;;;5006234;28;20205;-67
2022/11/16 05:34:26;;;;;;;3.20;2.10;;;9.60;99.90;;;;;;5010610;28;20203;-67
2022/11/16 05:36:53;;;;;;;2.40;2.20;;;9.60;99.90;;;;;;5012041;28;20207;-67
2022/11/16 05:39:19;;;;;;;2.03;1.83;;;9.60;99.90;;;;;;5011806;28;20207;-68
2022/11/16 05:41:46;;;;;;;2.78;1.90;;;9.60;99.90;;;;;;5010727;28;20227;-67
2022/11/16 05:44:16;;;;;;;2.13;1.83;;;9.60;99.90;;;;;;5011783;28;20230;-67
2022/11/16 05:46:43;;;;;;;3.25;1.98;;;9.60;99.90;;;;;;5011630;28;20561;-67
2022/11/16 05:49:11;;;;;;;2.20;2.00;;;9.50;99.90;;;;;;5011573;28;20220;-68
2022/11/16 05:51:39;;;;;;;4.00;2.47;;;9.50;99.90;;;;;;5010587;28;20232;-68
2022/11/16 05:54:06;;;;;;;5.07;2.10;;;9.40;99.90;;;;;;5011702;28;20198;-67
2022/11/16 05:56:34;;;;;;;3.38;2.00;;;9.40;99.90;;;;;;5011387;28;20225;-66
2022/11/16 05:59:01;;;;;;;2.72;1.88;;;9.30;99.90;;;;;;5011413;28;20690;-67
2022/11/16 06:01:29;;;;;;;2.53;2.05;;;9.40;99.90;;;;;;5010437;28;20244;-68
2022/11/16 06:03:59;;;;;;;2.45;2.05;;;9.40;99.90;;;;;;5011332;28;20226;-68
2022/11/16 06:06:26;;;;;;;1.85;1.50;;;9.40;99.90;;;;;;5011073;28;20701;-67
2022/11/16 06:08:53;;;;;;;2.72;2.22;;;9.30;99.90;;;;;;5011231;28;20210;-67
2022/11/16 06:11:20;;;;;;;2.17;1.60;;;9.30;99.90;;;;;;5010451;28;20222;-67
2022/11/16 06:13:47;;;;;;;1.90;1.70;;;9.30;99.90;;;;;;5011123;28;20203;-67
2022/11/16 06:16:14;;;;;;;1.77;1.67;;;9.30;99.90;;;;;;5010298;28;20207;-68
2022/11/16 06:18:44;;;;;;;2.38;2.05;;;9.30;99.90;;;;;;5011341;28;20202;-73
2022/11/16 06:21:12;;;;;;;2.95;2.10;;;9.30;99.90;;;;;;5004170;28;20227;-65
2022/11/16 06:23:38;;;;;;;2.10;1.90;;;9.30;99.90;;;;;;4991090;28;20703;-66
2022/11/16 06:26:06;;;;;;;2.42;1.85;;;9.30;99.90;;;;;;4991502;28;20247;-65
2022/11/16 06:28:33;;;;;;;2.67;1.75;;;9.30;99.90;;;;;;4991315;28;20206;-67
2022/11/16 06:31:00;;;;;;;2.38;2.03;;;9.30;99.90;;;;;;4990523;28;20224;-67
2022/11/16 06:33:27;;;;;;;2.35;1.90;;;9.30;99.90;;;;;;4991171;28;20589;-67
2022/11/16 06:35:55;;;;;;;2.40;1.77;;;9.30;99.90;;;;;;4991380;28;20203;-66
2022/11/16 06:38:22;;;;;;;3.25;1.83;;;9.30;99.90;;;;;;4991727;28;20208;-67
2022/11/16 06:40:51;;;;;;;5.82;2.08;;;9.40;99.90;;;;;;4990671;28;20314;-66
2022/11/16 06:43:18;;;;;;;2.13;1.73;;;9.40;99.90;;;;;;4991234;28;20301;-66
2022/11/16 06:45:49;;;;;;;1.90;1.70;;;9.40;99.90;;;;;;4991134;28;20203;-66
2022/11/16 06:50:52;;;;;;;2.33;1.80;;;9.40;99.90;;;;;;5038624;22;20644;-69
2022/11/16 06:53:21;;;;;;;2.25;2.05;;;9.40;99.90;;;;;;5002756;28;20196;-68
2022/11/16 06:55:48;;;;;;;2.83;2.00;;;9.50;99.90;;;;;;5010949;28;20561;-69
2022/11/16 06:58:15;;;;;;;2.67;1.80;;;9.50;99.90;;;;;;5010746;28;20203;-72
2022/11/16 07:00:42;;;;;;;1.83;1.70;;;9.50;99.90;;;;;;5009762;28;20227;-69
2022/11/16 07:03:09;;;;;;;2.03;1.50;;;9.50;99.90;;;;;;5010601;28;20227;-69
2022/11/16 07:05:39;;;;;;;2.53;2.33;;;9.50;99.90;;;;;;5010733;28;20226;-68
2022/11/16 07:08:06;;;;;;;2.00;1.83;;;9.50;99.90;;;;;;5010463;28;20264;-70
2022/11/16 07:10:34;;;;;;;2.22;1.98;;;9.70;99.90;;;;;;5010138;28;20275;-70
2022/11/16 07:13:03;;;;;;;2.20;2.00;;;9.60;99.90;;;;;;5010393;28;20294;-70
2022/11/16 07:15:29;;;;;;;1.35;1.17;;;9.70;99.90;;;;;;5010559;28;20211;-69
2022/11/16 07:17:56;;;;;;;1.67;1.58;;;9.70;99.90;;;;;;5010188;28;20260;-70
2022/11/16 07:20:23;;;;;;;2.95;1.60;;;9.70;99.90;;;;;;5009841;28;20223;-68
2022/11/16 07:22:50;;;;;;;2.28;2.08;;;9.70;99.90;;;;;;5010253;28;20225;-69
2022/11/16 07:25:16;;;;;;;1.63;1.50;;;9.70;99.90;;;;;;5010492;28;20203;-70
2022/11/16 07:27:44;;;;;;;1.83;1.73;;;9.70;99.90;;;;;;5012695;28;20207;-68
2022/11/16 07:30:12;;;;;;;1.70;1.45;;;9.70;99.90;;;;;;5013766;28;20223;-68
2022/11/16 07:32:40;;;;;;;1.70;1.25;;;9.70;99.90;;;;;;5014091;28;20202;-69
2022/11/16 07:35:08;;;;;;;3.75;2.10;;;9.80;99.90;;;;;;5014015;28;20555;-69
2022/11/16 07:37:34;;;;;;;1.42;1.23;;;9.80;99.90;;;;;;5014147;28;20560;-69
2022/11/16 07:40:01;;;;;;;1.45;1.35;;;9.80;99.90;;;;;;5013954;28;20226;-69
2022/11/16 07:42:28;;;;;;;1.45;1.20;;;9.80;99.90;;;;;;5013899;28;20210;-69
2022/11/16 07:44:56;;;;;;;1.65;1.55;;;9.90;99.90;;;;;;5013525;28;20210;-69
2022/11/16 07:47:22;;;;;;;1.40;1.30;;;9.90;99.90;;;;;;5013899;28;20199;-68
2022/11/16 07:49:49;;;;;;;2.55;1.73;;;9.90;99.90;;;;;;5013123;28;20687;-68
2022/11/16 07:52:16;;;;;;;1.65;1.35;;;10.00;99.90;;;;;;5013287;28;20235;-69
2022/11/16 07:54:42;;;;;;;1.30;1.20;;;10.00;99.90;;;;;;5013629;28;20209;-70
2022/11/16 07:57:09;;;;;;;1.30;1.20;;;10.00;99.90;;;;;;5013597;28;20683;-69
2022/11/16 07:59:36;;;;;;;2.15;1.08;;;10.00;99.90;;;;;;5013162;28;20203;-70
2022/11/16 08:02:04;;;;;;;1.95;1.13;;;10.10;99.90;;;;;;5013039;28;20206;-70
2022/11/16 08:04:31;;;;;;;2.80;1.35;;;10.10;99.90;;;;;;5013557;28;20234;-71
2022/11/16 08:06:57;;;;;;;1.23;1.00;;;10.10;99.90;;;;;;5012983;28;20203;-70
2022/11/16 08:09:24;;;;;;;1.63;1.15;;;10.10;99.90;;;;;;5003479;28;20218;-69
2022/11/16 08:11:51;;;;;;;1.30;0.98;;;10.10;99.90;;;;;;5009302;28;20721;-69
2022/11/16 08:14:18;;;;;;;1.60;1.13;;;10.20;99.90;;;;;;5013518;28;20208;-68
2022/11/16 08:16:45;;;;;;;1.40;1.30;;;10.40;99.90;;;;;;5013068;28;20307;-68
2022/11/16 08:19:13;;;;;;;3.05;1.27;;;10.70;99.90;;;;;;5013423;28;20221;-68
2022/11/16 08:21:40;;;;;;;2.85;1.20;;;11.30;99.90;;;;;;5012889;28;20250;-68
2022/11/16 08:24:07;;;;;;;2.00;1.25;;;11.70;99.90;;;;;;5013145;28;20228;-70
2022/11/16 08:26:34;;;;;;;1.30;0.88;;;11.90;99.90;;;;;;5013562;28;20588;-70
2022/11/16 08:29:00;;;;;;;1.60;1.20;;;12.20;99.90;;;;;;5013042;28;20215;-70
2022/11/16 08:31:28;;;;;;;1.13;1.03;;;13.40;99.90;;;;;;5012702;28;20234;-70
2022/11/16 08:33:55;;;;;;;1.67;1.10;;;14.80;99.90;;;;;;5013144;28;20969;-71
2022/11/16 08:36:24;;;;;;;0.93;0.80;;;15.20;99.90;;;;;;5013079;28;20462;-71
2022/11/16 08:38:52;;;;;;;1.10;0.77;;;14.80;99.90;;;;;;5011750;28;20949;-71
2022/11/16 08:41:20;;;;;;;1.07;0.97;;;14.20;99.90;;;;;;5012343;28;20478;-71
2022/11/16 08:43:49;;;;;;;4.90;1.27;;;13.40;99.90;;;;;;5012421;28;20489;-71
2022/11/16 08:46:16;;;;;;;2.95;1.10;;;12.90;99.90;;;;;;5012909;28;20469;-71
2022/11/16 08:48:43;;;;;;;1.05;0.82;;;12.50;99.90;;;;;;5012630;28;20203;-68
2022/11/16 08:51:11;;;;;;;3.45;1.30;;;12.30;99.90;;;;;;5011919;28;20657;-69
2022/11/16 08:53:39;;;;;;;1.38;0.90;;;12.20;99.90;;;;;;5012552;28;20199;-69
2022/11/16 08:56:08;;;;;;;2.13;1.13;;;12.10;99.90;;;;;;5012617;28;20556;-69
2022/11/16 08:58:35;;;;;;;1.40;0.90;;;12.00;99.90;;;;;;5012512;28;20457;-71
2022/11/16 09:01:08;;;;;;;1.93;1.10;;;12.00;99.90;;;;;;5011775;28;20732;-69
2022/11/16 09:03:35;;;;;;;1.00;0.80;;;11.90;99.90;;;;;;5012834;28;20581;-70
2022/11/16 09:06:02;;;;;;;1.10;1.00;;;11.70;99.90;;;;;;5012462;28;20203;-69
2022/11/16 09:08:29;;;;;;;1.05;0.95;;;11.60;99.90;;;;;;5012236;28;20696;-70
2022/11/16 09:10:57;;;;;;;2.65;1.10;;;11.50;99.90;;;;;;5011266;28;20227;-69
2022/11/16 09:13:24;;;;;;;2.25;2.05;;;11.60;99.90;;;;;;5012210;28;20542;-69
2022/11/16 09:15:56;;;;;;;2.55;1.50;;;12.90;99.90;;;;;;5012064;28;20210;-69
2022/11/16 09:18:22;;;;;;;1.80;1.10;;;16.10;99.90;;;;;;5012125;28;20257;-69
2022/11/16 09:20:49;;;;;;;1.33;1.13;;;19.70;99.90;;;;;;4999013;28;20478;-67
2022/11/16 09:23:16;;;;;;;1.80;1.10;;;23.00;99.90;;;;;;4995127;28;20459;-69
2022/11/16 09:25:44;;;;;;;1.10;1.00;;;24.70;99.90;;;;;;4992355;28;20470;-68
2022/11/16 09:28:12;;;;;;;1.63;1.30;;;24.40;99.90;;;;;;4992688;28;20467;-67
2022/11/16 09:30:39;;;;;;;1.30;1.07;;;23.50;99.90;;;;;;4991839;28;20506;-67
2022/11/16 09:33:06;;;;;;;1.67;1.00;;;22.90;99.90;;;;;;4992667;28;20469;-69
2022/11/16 09:35:34;;;;;;;1.47;1.20;;;21.70;99.90;;;;;;4992287;28;20463;-68
2022/11/16 09:38:01;;;;;;;1.07;0.77;;;20.00;99.90;;;;;;4991911;28;20810;-67
2022/11/16 09:40:31;;;;;;;1.43;0.90;;;18.30;99.90;;;;;;4991282;28;20498;-68
2022/11/16 09:43:05;;;;;;;1.00;0.83;;;16.70;99.90;;;;;;4991802;28;20466;-69
2022/11/16 09:45:41;;;;;;;1.60;1.07;;;15.50;99.90;;;;;;4992063;28;20890;-70
2022/11/16 09:48:11;;;;;;;1.93;1.60;;;14.70;99.90;;;;;;4992481;28;20467;-69
2022/11/16 09:50:48;;;;;;;1.07;0.90;;;14.10;99.90;;;;;;4991486;28;20986;-68
2022/11/16 09:53:29;;;;;;;2.43;1.23;;;13.60;99.90;;;;;;4991929;28;20458;-70
2022/11/16 09:56:01;;;;;;;1.70;1.00;;;13.30;99.90;;;;;;4991567;28;20469;-69
2022/11/16 09:58:32;;;;;;;0.90;0.80;;;13.10;99.90;;;;;;4991756;28;20465;-68
2022/11/16 10:01:05;;;;;;;1.70;1.20;;;13.10;99.90;;;;;;4990685;28;20490;-71
2022/11/16 10:03:39;;;;;;;1.23;0.90;;;13.00;99.90;;;;;;4991591;28;20478;-69
2022/11/16 10:06:11;;;;;;;1.47;1.13;;;13.00;99.90;;;;;;4991612;28;20837;-69
2022/11/16 10:08:43;;;;;;;1.07;0.93;;;13.10;99.90;;;;;;4991427;28;20954;-70
2022/11/16 10:11:31;;;;;;;1.83;0.93;;;13.10;99.90;;;;;;4990956;28;20843;-70
2022/11/16 10:14:14;;;;;;;1.20;1.10;;;13.00;99.90;;;;;;4991480;28;20457;-70
2022/11/16 10:16:50;;;;;;;1.27;1.17;;;12.80;99.90;;;;;;4991463;28;20458;-69
2022/11/16 10:19:25;;;;;;;1.10;1.00;;;12.90;99.90;;;;;;4991567;28;21012;-70
2022/11/16 10:21:59;;;;;;;2.17;1.10;;;12.80;99.90;;;;;;4990953;28;20497;-70
2022/11/16 10:24:42;;;;;;;1.20;1.00;;;12.80;99.90;;;;;;4991609;28;20486;-69
2022/11/16 10:27:24;;;;;;;1.10;1.00;;;12.90;99.90;;;;;;4991609;28;20474;-71
2022/11/16 10:30:01;;;;;;;1.45;0.90;;;12.90;99.90;;;;;;4991070;28;20984;-70
2022/11/16 10:32:32;;;;;;;1.10;1.00;;;12.80;99.90;;;;;;4991128;28;20203;-71
2022/11/16 10:35:04;;;;;;;1.90;1.00;;;12.60;99.90;;;;;;4991445;28;20462;-71
2022/11/16 10:37:31;;;;;;;3.05;1.10;;;12.30;99.90;;;;;;4991505;28;20463;-71
2022/11/16 10:39:59;;;;;;;1.58;1.00;;;12.20;99.90;;;;;;4991052;28;20231;-71
2022/11/16 10:42:34;;;;;;;1.40;1.30;;;12.00;99.90;;;;;;4991144;28;20734;-71
2022/11/16 10:45:08;;;;;;;2.35;1.52;;;11.90;99.90;;;;;;4991315;28;20223;-70
2022/11/16 10:47:43;;;;;;;1.65;1.20;;;12.00;99.90;;;;;;4991364;28;20208;-70
2022/11/16 10:50:26;;;;;;;1.87;1.37;;;12.10;99.90;;;;;;4990820;28;20235;-71
2022/11/16 10:52:53;;;;;;;1.13;1.02;;;12.20;99.90;;;;;;4991410;28;20498;-70
2022/11/16 10:55:21;;;;;;;1.88;1.00;;;12.70;99.90;;;;;;4991361;28;20206;-69
2022/11/16 10:57:56;;;;;;;1.00;0.90;;;14.70;99.90;;;;;;4990575;28;20203;-70
2022/11/16 11:00:35;;;;;;;1.20;1.10;;;17.10;99.90;;;;;;4989998;28;20483;-69
2022/11/16 11:03:03;;;;;;;2.03;0.93;;;19.50;99.90;;;;;;4993813;28;20566;-70
2022/11/16 11:05:30;;;;;;;1.20;1.10;;;22.20;99.90;;;;;;4994493;28;20490;-70
2022/11/16 11:08:02;;;;;;;0.97;0.87;;;24.50;99.90;;;;;;4994367;28;20957;-70
2022/11/16 11:10:31;;;;;;;1.30;0.90;;;24.70;99.90;;;;;;4993821;28;20854;-70
2022/11/16 11:13:05;;;;;;;1.50;1.07;;;23.80;99.90;;;;;;4994381;28;20470;-69
2022/11/16 11:15:32;;;;;;;2.13;1.30;;;23.70;99.90;;;;;;4994623;28;20458;-69
2022/11/16 11:18:18;;;;;;;3.93;1.13;;;22.80;99.90;;;;;;4994588;28;20463;-70
2022/11/16 11:20:47;;;;;;;1.30;1.00;;;22.30;99.90;;;;;;4993819;28;20478;-69
2022/11/16 11:23:17;;;;;;;3.40;1.47;;;23.30;99.90;;;;;;4994548;28;20465;-68
2022/11/16 11:25:51;;;;;;;2.80;1.10;;;23.30;99.90;;;;;;4994396;28;20494;-68
2022/11/16 11:28:22;;;;;;;1.83;0.90;;;24.00;99.90;;;;;;4994666;28;20470;-70
2022/11/16 11:30:58;;;;;;;1.47;1.07;;;24.10;99.90;;;;;;4993700;28;20486;-69
2022/11/16 11:33:29;;;;;;;1.80;1.20;;;24.10;99.10;;;;;;4994489;28;20462;-69
2022/11/16 11:36:01;;;;;;;0.90;0.70;;;24.30;99.10;;;;;;4994279;28;20463;-70
2022/11/16 11:38:28;;;;;;;1.97;1.20;;;24.40;98.70;;;;;;4994313;28;20517;-69
2022/11/16 11:40:58;;;;;;;1.63;0.90;;;23.60;97.60;;;;;;4993448;28;20485;-69
2022/11/16 11:43:25;;;;;;;1.27;0.90;;;23.00;98.70;;;;;;4994433;28;20461;-70
2022/11/16 11:45:58;;;;;;;1.10;0.90;;;23.40;97.60;;;;;;4993985;28;20496;-69
2022/11/16 11:48:36;;;;;;;2.20;1.33;;;22.20;98.40;;;;;;4994425;28;20968;-69
2022/11/16 11:51:10;;;;;;;1.10;0.80;;;20.70;99.20;;;;;;4993208;28;20486;-69
2022/11/16 11:53:46;;;;;;;1.10;1.00;;;19.20;99.90;;;;;;4994037;28;20461;-69
2022/11/16 11:56:14;;;;;;;0.90;0.80;;;18.20;99.90;;;;;;4993946;28;20470;-69
2022/11/16 11:58:42;;;;;;;0.90;0.80;;;17.50;99.90;;;;;;4993938;28;20458;-69
2022/11/16 12:01:38;;;;;;;4.10;0.90;;;17.00;99.90;;;;;;4993271;28;20479;-69
2022/11/16 12:04:40;;;;;;;1.37;0.70;;;16.40;99.90;;;;;;4993879;28;20847;-70
2022/11/16 12:07:16;;;;;;;3.17;1.00;;;15.80;99.90;;;;;;4978460;28;20454;-69
2022/11/16 12:09:48;;;;;;;1.10;0.87;;;15.50;99.90;;;;;;4993630;28;20461;-71
2022/11/16 12:12:28;;;;;;;1.50;0.90;;;15.20;99.90;;;;;;4997940;28;20574;-71
2022/11/16 12:15:06;;;;;;;1.00;0.80;;;15.20;99.90;;;;;;4998004;28;20451;-70
2022/11/16 12:17:45;;;;;;;2.00;0.93;;;15.30;99.90;;;;;;4993613;28;20455;-71
2022/11/16 12:20:25;;;;;;;1.63;0.87;;;15.20;99.90;;;;;;4993594;28;20482;-71
2022/11/16 12:23:34;;;;;;;1.20;1.00;;;15.10;99.90;;;;;;4989828;28;20466;-67
2022/11/16 12:26:07;;;;;;;1.40;0.80;;;14.80;99.90;;;;;;4994482;28;20490;-69
2022/11/16 12:28:51;;;;;;;0.97;0.80;;;14.50;99.90;;;;;;4999551;28;20549;-70
2022/11/16 12:31:39;;;;;;;2.10;0.97;;;14.10;99.90;;;;;;4998146;28;20560;-71
2022/11/16 12:34:13;;;;;;;1.70;1.10;;;13.90;99.90;;;;;;5001632;28;20857;-70
2022/11/16 12:36:54;;;;;;;1.30;0.70;;;13.80;99.90;;;;;;5002178;28;20458;-70
2022/11/16 12:39:24;;;;;;;1.10;0.70;;;13.80;99.90;;;;;;5001173;28;20465;-70
2022/11/16 12:42:24;;;;;;;1.00;0.90;;;13.90;99.90;;;;;;4996255;28;20474;-70
2022/11/16 12:45:15;;;;;;;3.80;0.90;;;14.00;99.90;;;;;;4991451;28;20482;-70
2022/11/16 12:47:53;;;;;;;1.23;0.80;;;14.20;99.90;;;;;;4994052;28;20459;-71
2022/11/16 12:50:42;;;;;;;1.50;0.93;;;14.70;99.90;;;;;;4990507;28;20573;-68
2022/11/16 12:53:38;;;;;;;2.30;1.10;;;15.10;99.90;;;;;;4997071;28;20541;-69
2022/11/16 12:56:12;;;;;;;1.80;1.00;;;15.30;99.90;;;;;;4995211;28;20454;-70
2022/11/16 12:58:56;;;;;;;1.67;1.00;;;15.50;99.90;;;;;;4995539;28;20457;-69
2022/11/16 13:01:30;;;;;;;1.40;1.20;;;15.70;99.90;;;;;;5001122;28;20469;-69
2022/11/16 13:04:04;;;;;;;1.30;0.87;;;16.00;99.90;;;;;;5001489;28;20458;-70
2022/11/16 13:06:34;;;;;;;0.93;0.70;;;16.20;99.90;;;;;;4999274;28;20450;-69
2022/11/16 13:09:08;;;;;;;1.47;0.90;;;16.70;99.90;;;;;;4999830;28;20454;-69
2022/11/16 13:11:39;;;;;;;1.30;0.80;;;17.60;99.90;;;;;;4996784;28;20879;-69
2022/11/16 13:14:14;;;;;;;1.17;0.80;;;18.60;99.90;;;;;;4994045;28;20529;-69
2022/11/16 13:16:45;;;;;;;2.23;0.87;;;19.00;99.30;;;;;;5003399;28;20520;-70
2022/11/16 13:19:16;;;;;;;1.60;1.10;;;19.30;98.10;;;;;;5006290;28;21034;-71
2022/11/16 13:21:51;;;;;;;2.43;1.50;;;19.30;98.40;;;;;;5004145;28;21090;-70
2022/11/16 13:24:42;;;;;;;1.87;0.80;;;19.20;98.10;;;;;;4994458;28;20477;-72
2022/11/16 13:27:17;;;;;;;1.10;0.80;;;19.00;98.10;;;;;;5005344;28;20464;-71
2022/11/16 13:29:52;;;;;;;2.33;0.80;;;19.10;98.60;;;;;;5006575;28;20453;-70
2022/11/16 13:32:25;;;;;;;0.80;0.70;;;19.20;98.40;;;;;;4995324;28;20449;-70
2022/11/16 13:34:52;;;;;;;1.30;0.90;;;19.20;98.60;;;;;;5004332;28;20567;-70
2022/11/16 13:37:43;;;;;;;1.23;0.90;;;18.50;99.00;;;;;;5006295;28;20454;-71
2022/11/16 13:40:21;;;;;;;1.37;1.07;;;17.60;99.90;;;;;;4994708;28;20489;-70
2022/11/16 13:43:14;;;;;;;1.20;0.70;;;16.90;99.90;;;;;;5004798;28;20470;-70
2022/11/16 13:45:44;;;;;;;2.30;1.10;;;16.40;99.90;;;;;;4990547;28;20529;-69
2022/11/16 13:48:18;;;;;;;1.57;0.90;;;15.90;99.90;;;;;;4998905;28;20820;-71
2022/11/16 13:50:51;;;;;;;2.03;1.10;;;15.40;99.90;;;;;;5001297;28;20487;-70
2022/11/16 13:53:27;;;;;;;1.20;0.97;;;15.10;99.90;;;;;;4986452;28;21078;-69
2022/11/16 13:55:58;;;;;;;1.97;1.20;;;15.00;99.90;;;;;;4987503;28;20946;-69
2022/11/16 13:58:26;;;;;;;1.00;0.87;;;14.90;99.90;;;;;;4999259;28;20458;-70
2022/11/16 14:01:00;;;;;;;2.13;0.90;;;14.90;99.90;;;;;;5002373;28;20486;-70